Details From CYZG - Salluit
To CYGL - LA GRANDE RIVIERE
Flight Number -
Tags decoded
Created
Modified
Stats Distance 518 nm / 959 km
Max Altitude 0 ft / 0 m
Waypoints 2
Social Downloads 0
Likes 0
Share VATSIM

Download

Looking for another format? Having issues loading an existing format? Contact us
Advertisement - Login to hide

Notes

Requested: CYZG CYGL

Route

CYZG CYGL

ID Type Via Altitude Latitude Longitude Leg Dist Tot Dist Heading (true) Name
O CYZG APT - 0 ft / 0 m 62.17918˚ -75.66731˚ - 0 nm - Salluit
O CYGL APT - 0 ft / 0 m 53.62537˚ -77.70412˚ 517 nm 517 nm 188° / 186° LA GRANDE RIVIERE

Altitude Profile

Advertisement - Login to hide

Weather


0- 5 10 15 20 25 30 35+ Temperature / ° C

Clouds and Precipitation
Forecast for 2017-12-15 18:00 UTC. Updated an hour ago

Ground ~20,000 ft ~40,000 ft Winds

CYZG

Details ICAO CYZG (YZG)
Name Salluit
Region Canada
Timezone America/Montreal (UTC-5.0)
Stats Elevation 705 ft / 215 m (AMSL)
Location 62.179178° -75.667313°
Runways 1
Magnetic Variation 22.964° W

METAR

CYZG 151600Z 02029G39KT 0SM +SN BLSN VV003 M11/M13 A2918 RMK BLSN8 SLP908

Decode

TAF

TAF CYZG 151439Z 1515/1522 03028G38KT 0SM SN +BLSN VV005 FM151700 01020G30KT 1SM -SN BLSN VV008 TEMPO 1517/1522 3SM -SN BLSN BKN015 OVC100 RMK NXT FCST WILL BE ISSUED AT 161445Z

Decode

Departure Runways

ID Width Length Bearing (true) Bearing (mag) Surface Threshold Offset Overrun Length
1 115 ft / 35 m 3,939 ft / 1,201 m 187.01° 209.97° Gravel 0 ft / 0 m 0 ft / 0 m
19 115 ft / 35 m 3,939 ft / 1,201 m 7.01° 29.97° Gravel 0 ft / 0 m 0 ft / 0 m

CYGL

Details ICAO CYGL (YGL)
Name LA GRANDE RIVIERE
Region Canada
Timezone America/Montreal (UTC-5.0)
Stats Elevation 639 ft / 195 m (AMSL)
Location 53.625369° -77.704115°
Runways 1
Magnetic Variation 15.324° W

METAR

CYGL 151638Z 25013KT 2 1/4SM -SN DRSN OVC016 M15/M18 A2958 RMK SC8 SLP038

Decode

TAF

TAF TAF AMD CYGL 151319Z 1513/1612 26010G20KT 11/2SM -SN OVC015 TEMPO 1513/1516 6SM -SN OVC025 FM151600 26012G22KT 2SM -SN BLSN OVC015 TEMPO 1516/1521 6SM -SN SCT012 OVC025 FM152100 26012G22KT 4SM -SHSN BKN015 OVC040 BECMG 1522/1524 25010KT RMK NXT FCST BY 151800Z

Decode

Destination Runways

ID Width Length Bearing (true) Bearing (mag) Surface Threshold Offset Overrun Length
13 150 ft / 46 m 6,469 ft / 1,972 m 113.03° 128.35° Asphalt 0 ft / 0 m 0 ft / 0 m
31 150 ft / 46 m 6,469 ft / 1,972 m 293.05° 308.37° Asphalt 0 ft / 0 m 0 ft / 0 m

Popular Alternatives